Popple River, Wisconsin
Current Conditions -  °F | °C
As of 2:55 PM on Thursday 23 Oct 2014 (Local Time) from KEGV Reporting Station
Light Rain Light Rain  
Wind Chill: 41°   Ceiling: 500
Heat Index: 44°   Visibility: 4mi
Dew Point: 44°   Wind: 6mph
Humidity: 100%   Direction: 210°SSW
Pressure: 30.01"   Gusts: NA
Location:  45.9186°N, 88.7601°W
Report Text: KEGV 231955Z AUTO 21005KT 4SM -RA OVC005 07/07 A3001 RMK AO2 P0001 T00670067
Loading
Personal Weather Stations






























Interactive Weather Map
Tropical Storm Tracking
New forecast layout! Learn more

10-Day Weather Forecast

Advertisements
Track Severe Weather on mobile